This is the latest recevied weather packets stored in our database for station/object JL1CBB-13. If no packets are shown the sender has not sent any weather packets the latest 10 day(s).
| Time | Temp. | Humidity | Pressure | Rain* | Wind** | Luminosity | Snow |
|---|---|---|---|---|---|---|---|
| 1777877734 | 24.44° C | 58% | 997 hPa | 0 mm | - | - | - |
| 1777877134 | 23.89° C | 61% | 997 hPa | 0 mm | - | - | - |
| 1777876534 | 24.44° C | 60% | 997 hPa | 0 mm | - | - | - |
| 1777875934 | 24.44° C | 61% | 997 hPa | 0 mm | - | - | - |
| 1777875334 | 25° C | 58% | 997 hPa | 0 mm | - | - | - |
| 1777874735 | 25.56° C | 58% | 996 hPa | 0 mm | - | - | - |
| 1777874135 | 26.67° C | 53% | 996 hPa | 0 mm | - | - | - |
| 1777873535 | 27.78° C | 52% | 996 hPa | 0 mm | - | - | - |
| 1777872935 | 27.78° C | 51% | 996 hPa | 0 mm | - | - | - |
| 1777872335 | 27.78° C | 52% | 996 hPa | 0 mm | - | - | - |
| 1777871735 | 27.78° C | 53% | 996 hPa | 0 mm | - | - | - |
| 1777871134 | 28.33° C | 52% | 997 hPa | 0 mm | - | - | - |
| 1777870534 | 28.89° C | 51% | 996 hPa | 0 mm | - | - | - |
| 1777869934 | 29.44° C | 50% | 996 hPa | 0 mm | - | - | - |
| 1777869334 | 29.44° C | 50% | 997 hPa | 0 mm | - | - | - |
| 1777868734 | 29.44° C | 50% | 997 hPa | 0 mm | - | - | - |
| 1777868134 | 30° C | 48% | 997 hPa | 0 mm | - | - | - |
| 1777867534 | 30° C | 49% | 997 hPa | 0 mm | - | - | - |
| 1777866934 | 30° C | 48% | 997 hPa | 0 mm | - | - | - |
| 1777866334 | 29.44° C | 49% | 997 hPa | 0 mm | - | - | - |
| 1777865734 | 30° C | 50% | 997 hPa | 0 mm | - | - | - |
| 1777865136 | 30° C | 51% | 998 hPa | 0 mm | - | - | - |
| 1777864536 | 30° C | 51% | 998 hPa | 0 mm | - | - | - |
| 1777863936 | 31.11° C | 50% | 998 hPa | 0 mm | - | - | - |
| 1777863335 | 31.67° C | 50% | 999 hPa | 0 mm | - | - | - |
* Rain latest hour (hover to see other rain measurements)
** Current wind speed in m/s (hover to see current wind gust speed)